Time;durP1;ratioP1;P1;durP2;ratioP2;P2;SDS_P1;SDS_P2;PMS_P1;PMS_P2;Temp;Humidity;BMP_temperature;BMP_pressure;BME280_temperature;BME280_humidity;BME280_pressure;Samples;Min_cycle;Max_cycle;Signal;HPM_P1;HPM_P2
2022/01/09 00:02:02;;;;;;;17.13;2.47;;;;;;;13.83;50.46;99005.28;5132798;27;20027;-70
2022/01/09 00:04:27;;;;;;;19.13;2.43;;;;;;;13.90;49.93;99007.53;5113078;27;20573;-68
2022/01/09 00:06:53;;;;;;;27.10;4.17;;;;;;;15.01;49.49;99013.75;5113997;27;20079;-70
2022/01/09 00:09:18;;;;;;;12.23;1.70;;;;;;;14.58;50.27;99003.00;5113383;27;20035;-70
2022/01/09 00:11:43;;;;;;;21.60;2.30;;;;;;;14.59;51.05;99028.38;5131407;27;20031;-70
2022/01/09 00:14:09;;;;;;;13.63;1.83;;;;;;;14.38;49.89;99018.09;5104766;28;20023;-68
2022/01/09 00:16:34;;;;;;;19.70;2.87;;;;;;;14.71;50.21;99027.72;5112211;28;20486;-68
2022/01/09 00:18:59;;;;;;;18.43;3.77;;;;;;;15.53;47.20;99038.84;5109536;28;20087;-68
2022/01/09 00:21:25;;;;;;;20.87;4.80;;;;;;;13.95;51.00;99062.41;5113579;27;20034;-68
2022/01/09 00:23:50;;;;;;;15.53;2.33;;;;;;;15.71;47.69;99046.59;5112729;27;20069;-67
2022/01/09 00:26:15;;;;;;;17.90;2.40;;;;;;;15.43;47.10;99056.97;5113326;27;20034;-68
2022/01/09 00:28:41;;;;;;;26.83;2.77;;;;;;;14.33;50.18;99084.97;5132188;27;20034;-68
2022/01/09 00:31:06;;;;;;;26.53;3.20;;;;;;;15.66;47.91;99080.25;5096095;28;20032;-68
2022/01/09 00:33:31;;;;;;;21.80;2.90;;;;;;;14.50;49.35;99070.94;5106867;27;20030;-68
2022/01/09 00:35:57;;;;;;;26.53;3.77;;;;;;;14.54;49.50;99091.72;5113393;27;20031;-68
2022/01/09 00:38:22;;;;;;;22.00;3.33;;;;;;;15.50;46.36;99086.41;5112630;27;20140;-68
2022/01/09 00:40:49;;;;;;;22.77;3.00;;;;;;;14.94;47.81;99093.97;5130904;27;20039;-67
2022/01/09 00:43:14;;;;;;;17.00;2.77;;;;;;;14.75;48.53;99105.53;5112817;27;20489;-67
2022/01/09 00:45:41;;;;;;;19.07;3.27;;;;;;;14.79;48.47;99100.09;5094862;28;20023;-68
2022/01/09 00:48:08;;;;;;;23.57;3.43;;;;;;;14.81;47.35;99113.97;5123333;27;20023;-68
2022/01/09 00:50:36;;;;;;;16.90;2.53;;;;;;;14.74;47.37;99114.34;5131472;27;20051;-68
2022/01/09 00:53:05;;;;;;;21.33;3.50;;;;;;;14.66;48.04;99115.66;5113144;27;20028;-68
2022/01/09 00:55:31;;;;;;;27.00;3.43;;;;;;;14.99;46.78;99112.97;5096795;27;20051;-68
2022/01/09 00:57:56;;;;;;;34.53;3.23;;;;;;;14.06;47.59;99132.78;5131601;27;20517;-68
2022/01/09 01:00:22;;;;;;;13.70;3.20;;;;;;;14.31;48.26;99126.25;5112674;27;20461;-68
2022/01/09 01:02:48;;;;;;;12.67;2.50;;;;;;;15.63;45.38;99123.41;5113185;27;20055;-68
2022/01/09 01:05:14;;;;;;;19.50;3.67;;;;;;;14.73;47.03;99131.03;5119630;27;20506;-68
2022/01/09 01:07:39;;;;;;;11.47;2.17;;;;;;;15.39;44.13;99137.06;5128667;27;20026;-68
2022/01/09 01:10:05;;;;;;;24.73;3.43;;;;;;;15.23;46.03;99144.13;5131477;27;20015;-68
2022/01/09 01:12:31;;;;;;;29.47;3.67;;;;;;;15.85;43.71;99153.81;5112609;27;20379;-68
2022/01/09 01:14:57;;;;;;;24.17;3.73;;;;;;;15.99;44.51;99150.34;5112265;27;20467;-68
2022/01/09 01:17:23;;;;;;;16.20;2.77;;;;;;;15.02;45.87;99165.44;5130688;27;20031;-68
2022/01/09 01:19:49;;;;;;;18.20;2.60;;;;;;;15.19;45.57;99161.84;5120860;27;20103;-68
2022/01/09 01:22:15;;;;;;;13.67;2.67;;;;;;;15.43;45.01;99167.53;5110371;27;20064;-68
2022/01/09 01:24:44;;;;;;;16.33;2.73;;;;;;;14.75;45.54;99171.28;5113182;27;20100;-68
2022/01/09 01:27:10;;;;;;;25.67;2.90;;;;;;;14.99;45.81;99193.69;5130537;27;20497;-68
2022/01/09 01:29:37;;;;;;;16.60;2.90;;;;;;;15.72;44.21;99174.72;5110537;27;20031;-68
2022/01/09 01:32:03;;;;;;;15.37;2.10;;;;;;;15.08;45.97;99201.06;5112175;27;20030;-68
2022/01/09 01:34:28;;;;;;;24.03;2.87;;;;;;;15.56;44.90;99185.28;5131216;27;20060;-68
2022/01/09 01:36:54;;;;;;;26.40;3.00;;;;;;;16.21;43.02;99197.34;5111616;27;20103;-68
2022/01/09 01:39:19;;;;;;;20.90;2.77;;;;;;;14.54;46.08;99214.44;5110908;27;20023;-68
2022/01/09 01:41:45;;;;;;;15.70;1.97;;;;;;;14.59;45.32;99221.16;5112909;27;20034;-68
2022/01/09 01:44:12;;;;;;;18.13;2.30;;;;;;;14.84;44.48;99224.31;5110829;27;20022;-68
2022/01/09 01:46:38;;;;;;;12.73;2.50;;;;;;;14.53;44.94;99228.50;5131065;27;20050;-68
2022/01/09 01:49:05;;;;;;;18.87;4.10;;;;;;;13.79;47.17;99245.34;5107669;28;20587;-68
2022/01/09 01:51:33;;;;;;;22.33;3.37;;;;;;;14.71;45.58;99255.66;5127026;27;20035;-68
2022/01/09 01:53:59;;;;;;;16.40;2.70;;;;;;;15.44;44.76;99253.50;5130599;27;20027;-68
2022/01/09 01:56:25;;;;;;;24.47;2.37;;;;;;;14.76;45.16;99257.09;5111150;27;20034;-68
2022/01/09 01:58:51;;;;;;;23.40;2.57;;;;;;;16.04;42.81;99254.53;5101161;28;20019;-68
2022/01/09 02:01:17;;;;;;;18.10;2.37;;;;;;;15.17;44.10;99273.44;5110665;28;20029;-68
2022/01/09 02:03:43;;;;;;;21.30;3.30;;;;;;;14.57;46.21;99262.44;5111099;28;20027;-68
2022/01/09 02:06:10;;;;;;;12.20;2.37;;;;;;;14.49;45.51;99271.66;5111700;28;20045;-68
2022/01/09 02:08:36;;;;;;;18.80;2.33;;;;;;;14.43;45.60;99278.91;5103361;28;20073;-68
2022/01/09 02:11:01;;;;;;;8.83;2.23;;;;;;;15.24;44.07;99293.22;5091364;28;20040;-68
2022/01/09 02:13:26;;;;;;;21.30;2.20;;;;;;;15.54;43.24;99281.94;5121789;28;20011;-68
2022/01/09 02:15:57;;;;;;;19.57;2.70;;;;;;;15.12;43.56;99291.25;5129334;28;20554;-68
2022/01/09 02:18:23;;;;;;;15.33;2.00;;;;;;;15.13;44.27;99290.31;5111024;28;20368;-68
2022/01/09 02:20:50;;;;;;;9.73;2.03;;;;;;;14.16;44.39;99290.81;5106855;27;20036;-69
2022/01/09 02:23:18;;;;;;;22.13;2.77;;;;;;;15.18;43.35;99302.28;5116388;27;20023;-68
2022/01/09 02:25:44;;;;;;;14.13;3.67;;;;;;;13.90;46.90;99313.94;5115411;27;20063;-68
2022/01/09 02:28:12;;;;;;;13.47;3.10;;;;;;;14.69;44.79;99316.22;5095775;28;20023;-68
2022/01/09 02:30:39;;;;;;;14.50;2.23;;;;;;;13.78;45.58;99325.03;5119816;27;20051;-68
2022/01/09 02:33:08;;;;;;;11.70;2.20;;;;;;;13.93;45.71;99337.47;5131020;27;20382;-68
2022/01/09 02:35:34;;;;;;;9.80;1.73;;;;;;;14.58;44.52;99350.06;5115908;27;20023;-68
2022/01/09 02:38:00;;;;;;;10.93;2.13;;;;;;;13.86;44.89;99357.03;5134684;27;20031;-69
2022/01/09 02:40:26;;;;;;;5.87;1.50;;;;;;;14.73;43.42;99349.31;5130820;27;20034;-68
2022/01/09 02:42:53;;;;;;;17.47;2.60;;;;;;;15.42;42.27;99350.13;5116048;27;20015;-68
2022/01/09 02:45:21;;;;;;;16.63;2.53;;;;;;;15.99;41.51;99356.75;5115517;27;20026;-68
2022/01/09 02:47:52;;;;;;;23.60;3.30;;;;;;;15.44;42.56;99358.81;5133766;27;20019;-68
2022/01/09 02:52:52;;;;;;;17.80;2.40;;;;;;;14.90;43.36;99381.81;5134171;27;20039;-68
2022/01/09 02:55:19;;;;;;;12.10;2.40;;;;;;;14.86;43.06;99385.53;5133760;27;20076;-68
2022/01/09 02:58:06;;;;;;;16.23;2.33;;;;;;;15.26;42.78;99389.59;5133980;27;20035;-69
2022/01/09 03:00:37;;;;;;;12.60;1.83;;;;;;;14.65;43.36;99397.97;5109303;27;20035;-68
2022/01/09 03:03:04;;;;;;;14.60;2.07;;;;;;;14.67;43.59;99390.84;5115328;27;20110;-69
2022/01/09 03:05:30;;;;;;;18.93;2.07;;;;;;;14.92;42.44;99406.28;5115581;27;20409;-68
2022/01/09 03:07:56;;;;;;;15.07;2.33;;;;;;;14.37;43.73;99423.81;5114534;27;20031;-68
2022/01/09 03:10:22;;;;;;;17.03;1.57;;;;;;;14.02;45.13;99421.06;5115071;27;20122;-68
2022/01/09 03:12:49;;;;;;;11.13;2.00;;;;;;;13.22;45.75;99428.09;5109992;27;20035;-70
2022/01/09 03:15:16;;;;;;;11.37;2.40;;;;;;;13.71;45.54;99435.63;5113959;27;20019;-68
2022/01/09 03:17:42;;;;;;;16.70;2.40;;;;;;;14.97;42.57;99429.72;5114765;27;20390;-69
2022/01/09 03:20:12;;;;;;;12.93;2.67;;;;;;;14.72;43.34;99431.78;5133391;27;20051;-69
2022/01/09 03:22:37;;;;;;;10.17;1.73;;;;;;;14.18;44.11;99441.38;5114464;27;20046;-68
2022/01/09 03:25:04;;;;;;;12.60;1.73;;;;;;;13.98;44.48;99440.50;5114370;27;20498;-69
2022/01/09 03:27:29;;;;;;;9.03;2.33;;;;;;;14.08;44.14;99452.31;5132889;27;20039;-69
2022/01/09 03:29:55;;;;;;;10.97;2.30;;;;;;;13.74;44.84;99460.88;5105188;28;20084;-69
2022/01/09 03:32:20;;;;;;;4.37;1.77;;;;;;;14.19;43.68;99464.09;5105841;27;20390;-68
2022/01/09 03:34:45;;;;;;;10.40;2.60;;;;;;;14.03;44.69;99464.81;5114877;27;20031;-68
2022/01/09 03:37:11;;;;;;;17.10;1.97;;;;;;;14.26;43.48;99462.91;5113402;27;20026;-68
2022/01/09 03:39:37;;;;;;;17.40;1.73;;;;;;;13.68;43.66;99471.66;5114965;27;20123;-68
2022/01/09 03:42:03;;;;;;;11.13;1.43;;;;;;;14.26;42.84;99481.28;5113852;27;20123;-68
2022/01/09 03:44:29;;;;;;;5.00;1.33;;;;;;;13.04;44.51;99484.81;5131406;27;20106;-70
2022/01/09 03:46:55;;;;;;;16.57;2.43;;;;;;;13.01;45.00;99484.97;5100467;27;20061;-71
2022/01/09 03:49:21;;;;;;;10.50;1.60;;;;;;;14.55;42.38;99481.69;5114008;27;20023;-71
2022/01/09 03:51:50;;;;;;;4.30;1.53;;;;;;;13.87;42.77;99490.06;5132250;27;20394;-70
2022/01/09 03:54:17;;;;;;;9.97;1.70;;;;;;;14.56;42.24;99499.16;5114679;27;20110;-70
2022/01/09 03:56:43;;;;;;;9.23;1.47;;;;;;;14.00;43.84;99498.22;5112973;27;20225;-71
2022/01/09 03:59:08;;;;;;;8.17;1.37;;;;;;;14.80;41.89;99504.22;5114294;27;20131;-71
2022/01/09 04:01:34;;;;;;;8.37;1.20;;;;;;;14.48;42.76;99514.44;5113363;27;20072;-70
2022/01/09 04:03:59;;;;;;;12.60;2.23;;;;;;;13.33;44.19;99511.63;5113685;27;20030;-70
2022/01/09 04:06:25;;;;;;;6.60;1.40;;;;;;;14.05;42.58;99510.28;5104813;27;20102;-70
2022/01/09 04:08:52;;;;;;;7.67;2.07;;;;;;;13.63;43.25;99519.13;5133064;27;20467;-71
2022/01/09 04:11:26;;;;;;;6.87;1.87;;;;;;;13.35;44.70;99520.31;5113501;27;20096;-70
2022/01/09 04:13:52;;;;;;;9.03;2.03;;;;;;;14.06;42.19;99527.72;5114403;27;20406;-70
2022/01/09 04:16:17;;;;;;;15.37;1.57;;;;;;;14.04;43.34;99519.06;5100227;27;20020;-71
2022/01/09 04:18:43;;;;;;;5.27;1.37;;;;;;;13.00;44.11;99530.47;5113675;27;20435;-69
2022/01/09 04:21:08;;;;;;;6.40;2.03;;;;;;;13.80;42.99;99528.03;5113802;27;20134;-69
2022/01/09 04:23:33;;;;;;;12.63;1.83;;;;;;;13.38;44.07;99541.19;5132500;27;20015;-70
2022/01/09 04:25:59;;;;;;;10.03;1.47;;;;;;;13.60;43.10;99540.28;5113250;27;20488;-69
2022/01/09 04:28:25;;;;;;;7.60;1.40;;;;;;;14.01;42.75;99540.22;5113067;27;20160;-69
2022/01/09 04:30:50;;;;;;;4.17;1.13;;;;;;;14.22;41.71;99553.31;5101805;28;20028;-69
2022/01/09 04:33:15;;;;;;;8.30;1.20;;;;;;;13.76;42.50;99564.06;5108136;27;20027;-69
2022/01/09 04:35:41;;;;;;;11.13;1.20;;;;;;;13.63;43.81;99574.25;5114125;27;20019;-69
2022/01/09 04:38:07;;;;;;;12.63;1.53;;;;;;;14.10;42.32;99559.13;5112819;27;20042;-69
2022/01/09 04:40:33;;;;;;;6.07;1.50;;;;;;;15.19;40.04;99568.94;5112208;27;20035;-69
2022/01/09 04:43:01;;;;;;;9.03;1.90;;;;;;;13.71;42.76;99573.91;5131401;27;20387;-69
2022/01/09 04:45:28;;;;;;;12.10;1.80;;;;;;;14.70;40.92;99580.91;5131676;27;20019;-69
2022/01/09 04:47:55;;;;;;;9.10;1.27;;;;;;;13.95;41.84;99592.19;5104111;28;20110;-69
2022/01/09 04:50:28;;;;;;;9.03;1.63;;;;;;;14.70;40.39;99580.03;5095704;27;20379;-69
2022/01/09 04:53:00;;;;;;;7.85;1.15;;;;;;;13.31;42.54;99597.44;5112638;27;20418;-69
2022/01/09 04:55:27;;;;;;;13.60;1.42;;;;;;;14.89;40.20;99591.44;5131129;27;20034;-69
2022/01/09 04:57:52;;;;;;;14.20;1.50;;;;;;;14.36;40.63;99603.47;5112475;27;20030;-69
2022/01/09 05:00:17;;;;;;;4.60;0.93;;;;;;;14.57;41.34;99608.66;5111052;27;20374;-70
2022/01/09 05:02:43;;;;;;;11.83;2.13;;;;;;;13.50;42.54;99617.69;5103011;27;20023;-69
2022/01/09 05:05:09;;;;;;;9.30;1.97;;;;;;;14.14;42.88;99629.84;5131626;27;20026;-69
2022/01/09 05:07:35;;;;;;;10.93;1.87;;;;;;;14.35;42.82;99632.44;5130241;27;20027;-69
2022/01/09 05:10:02;;;;;;;4.80;1.23;;;;;;;13.28;44.88;99634.28;5112767;27;20039;-69
2022/01/09 05:12:28;;;;;;;10.40;1.33;;;;;;;13.05;44.69;99641.31;5131334;27;20432;-69
2022/01/09 05:14:53;;;;;;;3.77;1.17;;;;;;;14.39;43.12;99639.28;5130262;27;20019;-69
2022/01/09 05:17:19;;;;;;;15.67;1.40;;;;;;;14.16;42.85;99643.75;5097595;27;20027;-69
2022/01/09 05:19:46;;;;;;;14.23;1.47;;;;;;;15.17;40.78;99639.25;5131030;27;20073;-69
2022/01/09 05:22:12;;;;;;;8.87;1.33;;;;;;;13.71;42.50;99658.81;5112009;27;20335;-69
2022/01/09 05:24:37;;;;;;;5.37;2.03;;;;;;;13.96;43.04;99662.16;5112624;27;20042;-69
2022/01/09 05:27:03;;;;;;;7.73;1.07;;;;;;;14.08;42.40;99662.50;5112136;27;20022;-69
2022/01/09 05:29:28;;;;;;;6.73;1.33;;;;;;;14.29;41.63;99670.38;5112364;27;20031;-69
2022/01/09 05:31:54;;;;;;;4.83;1.47;;;;;;;13.21;43.72;99680.06;5097974;27;20111;-69
2022/01/09 05:34:20;;;;;;;5.73;1.67;;;;;;;14.15;42.17;99673.63;5112130;27;20031;-69
2022/01/09 05:36:45;;;;;;;4.63;1.17;;;;;;;15.82;38.47;99667.72;5112482;27;20023;-69
2022/01/09 05:39:11;;;;;;;13.70;1.40;;;;;;;14.57;40.33;99669.16;5111747;27;20042;-69
2022/01/09 05:41:37;;;;;;;4.43;1.20;;;;;;;15.09;39.23;99674.66;5096112;27;20027;-69
2022/01/09 05:44:03;;;;;;;4.90;1.23;;;;;;;15.03;38.66;99677.59;5107866;27;20058;-69
2022/01/09 05:46:28;;;;;;;6.87;1.80;;;;;;;14.53;41.40;99688.63;5112700;27;20478;-69
2022/01/09 05:48:54;;;;;;;6.37;1.97;;;;;;;14.75;40.62;99689.41;5111425;27;20045;-69
2022/01/09 05:51:19;;;;;;;10.00;1.60;;;;;;;14.80;40.20;99683.06;5129710;27;20030;-69
2022/01/09 05:53:45;;;;;;;8.27;1.67;;;;;;;14.93;40.45;99682.44;5111339;27;20497;-69
2022/01/09 05:56:10;;;;;;;8.67;2.00;;;;;;;14.47;41.17;99700.25;5111588;27;20037;-69
2022/01/09 05:58:36;;;;;;;7.30;1.57;;;;;;;15.07;39.32;99694.06;5112139;28;20024;-69
2022/01/09 06:01:03;;;;;;;4.57;0.93;;;;;;;14.28;41.08;99710.72;5111587;28;20129;-69
2022/01/09 06:03:29;;;;;;;14.00;1.50;;;;;;;15.24;39.68;99702.03;5109197;28;20031;-69
2022/01/09 06:05:54;;;;;;;3.40;1.13;;;;;;;13.92;41.85;99714.00;5130559;28;20080;-69
2022/01/09 06:08:20;;;;;;;4.33;1.00;;;;;;;12.78;43.68;99713.19;5111549;28;20436;-69
2022/01/09 06:10:45;;;;;;;4.13;1.33;;;;;;;14.66;40.95;99712.59;5111400;28;20023;-69
2022/01/09 06:13:11;;;;;;;3.27;1.47;;;;;;;14.22;41.40;99721.50;5111493;28;20027;-69
2022/01/09 06:15:36;;;;;;;8.73;1.70;;;;;;;16.25;37.86;99716.47;5108249;28;20050;-69
2022/01/09 06:18:02;;;;;;;12.87;1.70;;;;;;;15.24;39.05;99724.88;5129346;28;20418;-69
2022/01/09 06:20:28;;;;;;;9.13;1.43;;;;;;;14.31;41.21;99736.03;5110673;28;20058;-69
2022/01/09 06:22:53;;;;;;;5.77;1.43;;;;;;;14.54;40.15;99732.41;5097711;28;20031;-69
2022/01/09 06:25:18;;;;;;;10.10;2.37;;;;;;;14.73;40.39;99743.84;5107382;28;20035;-70
2022/01/09 06:27:44;;;;;;;6.43;1.20;;;;;;;13.60;42.53;99760.81;5111787;28;20027;-69
2022/01/09 06:30:11;;;;;;;7.40;1.77;;;;;;;13.67;42.78;99762.28;5129402;28;20478;-69
2022/01/09 06:32:36;;;;;;;11.03;1.60;;;;;;;14.39;42.22;99750.53;5110642;28;20094;-69
2022/01/09 06:35:04;;;;;;;14.37;1.43;;;;;;;13.91;43.33;99759.56;5130631;28;20498;-69
2022/01/09 06:37:29;;;;;;;9.90;1.53;;;;;;;14.03;42.15;99759.06;5129742;28;20026;-69
2022/01/09 06:39:54;;;;;;;7.53;1.67;;;;;;;15.54;39.30;99758.59;5129992;28;20031;-69
2022/01/09 06:42:20;;;;;;;7.03;2.03;;;;;;;15.31;39.87;99760.53;5128609;28;20023;-69
2022/01/09 06:44:45;;;;;;;3.10;1.33;;;;;;;14.00;42.76;99767.06;5092979;28;20399;-69
2022/01/09 06:47:10;;;;;;;9.37;1.40;;;;;;;14.35;42.41;99769.16;5091541;28;20026;-69
2022/01/09 06:49:36;;;;;;;11.50;2.17;;;;;;;14.76;40.94;99775.25;5111903;28;20035;-69
2022/01/09 06:52:03;;;;;;;7.60;1.60;;;;;;;14.55;41.68;99787.53;5095566;28;20125;-69
2022/01/09 06:54:29;;;;;;;9.13;1.80;;;;;;;14.91;41.43;99792.13;5110101;28;20029;-69
2022/01/09 06:56:54;;;;;;;6.70;2.03;;;;;;;15.05;41.28;99786.25;5129942;28;20039;-69
2022/01/09 06:59:19;;;;;;;7.90;1.97;;;;;;;15.35;40.47;99800.75;5110753;28;20048;-70
2022/01/09 07:01:45;;;;;;;7.33;2.57;;;;;;;14.91;41.36;99809.72;5111119;28;20063;-69
2022/01/09 07:04:10;;;;;;;5.03;1.57;;;;;;;14.45;42.20;99803.78;5110190;28;20073;-69
2022/01/09 07:06:36;;;;;;;7.70;1.60;;;;;;;14.08;42.72;99804.41;5112715;27;20494;-69
2022/01/09 07:09:02;;;;;;;5.13;1.30;;;;;;;14.41;42.75;99805.66;5132785;27;20106;-69
2022/01/09 07:11:27;;;;;;;5.47;1.67;;;;;;;14.63;41.27;99815.31;5115641;27;20121;-70
2022/01/09 07:13:53;;;;;;;8.97;1.73;;;;;;;14.72;41.28;99810.50;5104945;28;20026;-70
2022/01/09 07:16:18;;;;;;;9.93;2.33;;;;;;;15.75;38.58;99801.50;5103004;27;20567;-69
2022/01/09 07:18:43;;;;;;;8.93;1.53;;;;;;;15.00;40.19;99811.94;5132890;27;20026;-70
2022/01/09 07:21:09;;;;;;;7.63;1.60;;;;;;;15.27;39.79;99811.59;5132210;27;20047;-69
2022/01/09 07:23:34;;;;;;;5.20;1.40;;;;;;;14.41;41.08;99822.31;5133590;27;20034;-69
2022/01/09 07:26:01;;;;;;;12.30;1.67;;;;;;;14.62;40.58;99824.97;5115595;27;20074;-69
2022/01/09 07:28:26;;;;;;;4.70;1.67;;;;;;;15.50;39.08;99813.19;5129761;27;20059;-69
2022/01/09 07:30:51;;;;;;;4.70;1.50;;;;;;;15.66;38.50;99820.34;5101064;27;20023;-69
2022/01/09 07:33:17;;;;;;;17.97;2.07;;;;;;;14.40;40.22;99836.38;5133026;27;20046;-69
2022/01/09 07:35:42;;;;;;;12.43;1.70;;;;;;;15.96;37.35;99841.78;5132757;27;20089;-69
2022/01/09 07:38:08;;;;;;;6.20;1.27;;;;;;;14.48;40.68;99862.34;5131040;27;20103;-69
2022/01/09 07:40:33;;;;;;;13.07;1.87;;;;;;;13.98;41.58;99855.59;5117955;27;20033;-69
2022/01/09 07:42:59;;;;;;;10.33;2.03;;;;;;;15.10;40.18;99857.97;5130590;27;20098;-69
2022/01/09 07:45:27;;;;;;;10.27;1.70;;;;;;;15.16;39.59;99861.25;5132575;27;20035;-69
2022/01/09 07:47:54;;;;;;;11.90;1.20;;;;;;;14.54;42.17;99863.88;5114809;27;20031;-69
2022/01/09 07:50:20;;;;;;;12.17;2.10;;;;;;;14.28;42.66;99871.06;5131025;27;20035;-69
2022/01/09 07:52:45;;;;;;;2.70;1.03;;;;;;;13.63;44.60;99876.22;5097691;28;20092;-69
2022/01/09 07:55:20;;;;;;;8.43;1.30;;;;;;;13.52;44.72;99883.66;5093757;28;20032;-70
2022/01/09 07:57:46;;;;;;;11.83;1.27;;;;;;;14.60;42.46;99874.13;5112141;27;20026;-69
2022/01/09 08:00:13;;;;;;;6.23;1.33;;;;;;;14.62;42.29;99874.94;5113066;27;20031;-69
2022/01/09 08:02:38;;;;;;;4.30;1.33;;;;;;;14.81;41.76;99879.41;5113064;27;20018;-69
2022/01/09 08:05:06;;;;;;;9.03;1.80;;;;;;;14.34;42.30;99881.34;5133081;27;20023;-69
2022/01/09 08:07:31;;;;;;;7.67;1.43;;;;;;;14.17;43.28;99878.53;5114192;27;20088;-69
2022/01/09 08:09:56;;;;;;;3.77;1.17;;;;;;;13.72;43.81;99886.38;5131325;27;20031;-69
2022/01/09 08:12:22;;;;;;;10.97;1.90;;;;;;;14.51;42.74;99890.31;5132047;27;20092;-68
2022/01/09 08:14:47;;;;;;;9.80;1.60;;;;;;;14.12;43.42;99888.34;5132723;27;20038;-69
2022/01/09 08:17:13;;;;;;;7.73;1.67;;;;;;;14.33;42.88;99903.28;5112639;28;20039;-69
2022/01/09 08:19:39;;;;;;;8.07;1.50;;;;;;;14.50;42.25;99899.09;5098785;27;20452;-68
2022/01/09 08:22:06;;;;;;;5.23;1.77;;;;;;;14.96;41.60;99905.09;5132564;27;20110;-69
2022/01/09 08:24:34;;;;;;;5.73;1.77;;;;;;;15.56;40.75;99906.84;5121682;27;20462;-69
2022/01/09 08:27:00;;;;;;;11.80;3.33;;;;;;;14.80;41.14;99909.31;5118792;27;20049;-69
2022/01/09 08:29:25;;;;;;;14.03;2.30;;;;;;;15.86;39.86;99903.78;5114054;27;20470;-69
2022/01/09 08:31:51;;;;;;;6.80;1.50;;;;;;;15.87;39.66;99910.75;5130397;27;20023;-69
2022/01/09 08:34:17;;;;;;;9.30;1.70;;;;;;;14.65;42.36;99923.94;5113901;27;20489;-69
2022/01/09 08:36:42;;;;;;;11.30;1.97;;;;;;;16.10;39.20;99913.16;5113623;27;20122;-69
2022/01/09 08:39:10;;;;;;;10.83;2.00;;;;;;;15.82;39.04;99918.00;5112774;27;20027;-69
2022/01/09 08:41:35;;;;;;;11.63;2.30;;;;;;;16.50;38.26;99920.06;5111722;27;20340;-69
2022/01/09 08:44:01;;;;;;;13.67;2.40;;;;;;;16.70;38.31;99925.19;5114102;27;20039;-69
2022/01/09 08:46:28;;;;;;;17.03;2.37;;;;;;;15.47;40.25;99938.84;5113391;27;20106;-68
2022/01/09 08:48:53;;;;;;;13.00;2.27;;;;;;;14.98;40.65;99958.50;5113213;27;20489;-69
2022/01/09 08:51:18;;;;;;;12.20;1.80;;;;;;;15.62;39.94;99948.72;5127502;27;20078;-69
2022/01/09 08:53:50;;;;;;;8.53;2.20;;;;;;;15.78;39.15;99952.38;5098438;27;20668;-68
2022/01/09 08:56:19;;;;;;;9.07;1.63;;;;;;;15.25;40.17;99956.47;5103744;27;20027;-68
2022/01/09 08:58:45;;;;;;;11.40;1.93;;;;;;;15.48;40.31;99956.38;5112298;27;20046;-68
2022/01/09 09:01:10;;;;;;;4.40;1.63;;;;;;;15.16;40.29;99961.28;5106516;28;20028;-68
2022/01/09 09:03:40;;;;;;;9.23;1.70;;;;;;;16.08;39.18;99964.22;5112846;27;20560;-68
2022/01/09 09:06:06;;;;;;;11.47;2.20;;;;;;;16.57;37.80;99964.53;5130833;27;20506;-68
2022/01/09 09:08:32;;;;;;;8.53;1.30;;;;;;;13.28;43.18;99971.97;5112319;27;20031;-68
2022/01/09 09:10:57;;;;;;;9.30;1.30;;;;;;;13.95;42.31;99971.31;5112817;27;20486;-68
2022/01/09 09:13:22;;;;;;;11.60;1.53;;;;;;;14.58;41.54;99991.69;5111904;27;20118;-68
2022/01/09 09:15:47;;;;;;;3.87;1.27;;;;;;;13.22;43.63;99991.41;5129886;27;20110;-68
2022/01/09 09:18:13;;;;;;;7.33;1.37;;;;;;;13.07;45.77;99998.88;5130989;27;20051;-68
2022/01/09 09:20:38;;;;;;;6.00;1.10;;;;;;;14.01;44.97;99985.97;5108254;28;20519;-68
2022/01/09 09:23:04;;;;;;;6.57;1.30;;;;;;;14.50;42.25;99991.13;5108818;28;20031;-68
2022/01/09 09:25:29;;;;;;;8.93;1.30;;;;;;;14.63;41.76;99989.75;5108583;28;20027;-68
2022/01/09 09:27:55;;;;;;;11.50;1.70;;;;;;;14.42;42.29;100002.81;5107881;28;20031;-70
2022/01/09 09:30:20;;;;;;;7.20;1.80;;;;;;;14.48;42.62;100012.22;5107131;28;20059;-68
2022/01/09 09:32:45;;;;;;;7.40;1.53;;;;;;;13.33;45.61;100026.00;5098243;28;20032;-68
2022/01/09 09:35:11;;;;;;;9.73;1.40;;;;;;;13.56;46.08;100021.78;5101432;28;20398;-67
2022/01/09 09:37:37;;;;;;;8.13;1.83;;;;;;;14.38;43.65;100022.25;5109450;28;20491;-68
2022/01/09 09:40:03;;;;;;;5.93;1.33;;;;;;;13.63;43.39;100020.63;5106825;28;20051;-68
2022/01/09 09:42:29;;;;;;;7.00;1.13;;;;;;;13.78;43.55;100028.88;5107525;28;20478;-68
2022/01/09 09:45:00;;;;;;;8.07;1.27;;;;;;;14.04;44.00;100043.66;5107722;28;20024;-68
2022/01/09 09:47:26;;;;;;;8.63;1.60;;;;;;;14.56;42.86;100053.97;5108733;28;20110;-68
2022/01/09 09:49:51;;;;;;;13.07;1.43;;;;;;;14.29;43.72;100051.50;5107194;28;20455;-69
2022/01/09 09:52:18;;;;;;;7.67;1.03;;;;;;;14.23;42.35;100049.09;5126268;27;20035;-68
2022/01/09 09:54:48;;;;;;;8.27;1.23;;;;;;;15.12;40.50;100038.66;5102235;28;20028;-68
2022/01/09 09:57:14;;;;;;;1.63;1.30;;;;;;;15.42;40.17;100047.88;5108819;28;20513;-68
2022/01/09 09:59:39;;;;;;;8.70;1.13;;;;;;;14.75;41.54;100048.88;5108649;28;20019;-68
2022/01/09 10:02:13;;;;;;;8.77;1.40;;;;;;;13.37;44.72;100053.06;5100608;28;20024;-68
2022/01/09 10:05:00;;;;;;;12.43;1.93;;;;;;;15.25;41.19;100051.25;5108767;28;20024;-68
2022/01/09 10:07:26;;;;;;;12.10;2.23;;;;;;;15.57;41.00;100056.06;5109625;28;20065;-68
2022/01/09 10:09:57;;;;;;;9.83;2.17;;;;;;;15.22;42.22;100061.03;5107851;28;20042;-68
2022/01/09 10:12:24;;;;;;;14.23;2.10;;;;;;;15.57;41.10;100072.72;5106191;28;20342;-68
2022/01/09 10:14:53;;;;;;;6.13;2.00;;;;;;;17.11;39.12;100059.56;5109839;28;20027;-70
2022/01/09 10:17:22;;;;;;;6.50;1.90;;;;;;;15.56;41.11;100060.47;5107808;28;20536;-68
2022/01/09 10:20:11;;;;;;;8.30;1.57;;;;;;;16.53;39.36;100052.66;5108548;28;20089;-68
2022/01/09 10:22:47;;;;;;;6.80;1.30;;;;;;;15.49;41.00;100059.00;5107994;28;20024;-67
2022/01/09 10:25:37;;;;;;;8.67;1.90;;;;;;;16.24;39.82;100068.06;5108492;28;20126;-68
2022/01/09 10:28:05;;;;;;;7.67;2.03;;;;;;;16.20;39.05;100070.91;5113285;27;20048;-67
2022/01/09 10:30:39;;;;;;;12.07;1.57;;;;;;;15.93;40.39;100068.56;5107537;28;20027;-68
2022/01/09 10:33:30;;;;;;;15.37;1.90;;;;;;;17.40;37.76;100065.16;5109031;28;20368;-68
2022/01/09 10:35:56;;;;;;;15.50;1.67;;;;;;;16.52;38.29;100081.75;5110025;28;20019;-68
2022/01/09 10:38:27;;;;;;;14.10;2.00;;;;;;;15.75;40.25;100081.59;5107911;28;20030;-68
2022/01/09 10:40:57;;;;;;;9.80;1.63;;;;;;;16.53;38.68;100086.09;5107050;28;20028;-68
2022/01/09 10:43:41;;;;;;;12.33;1.80;;;;;;;17.25;37.79;100084.44;5098024;28;20192;-68
2022/01/09 10:46:08;;;;;;;8.43;1.73;;;;;;;16.65;38.90;100085.53;5100832;28;20023;-67
2022/01/09 10:48:41;;;;;;;7.23;1.60;;;;;;;17.19;38.42;100077.69;5113013;28;20118;-68
2022/01/09 10:51:10;;;;;;;8.20;1.70;;;;;;;17.81;36.85;100085.97;5111540;28;20132;-67
2022/01/09 10:53:40;;;;;;;8.33;2.17;;;;;;;17.24;38.04;100082.72;5113725;28;20513;-67
2022/01/09 10:56:20;;;;;;;7.90;2.10;;;;;;;17.63;37.02;100086.94;5114112;28;20023;-68
2022/01/09 10:58:49;;;;;;;8.67;2.47;;;;;;;18.23;35.99;100080.31;5112450;28;20546;-68
2022/01/09 11:01:31;;;;;;;7.97;2.60;;;;;;;17.62;36.77;100091.34;5111781;28;20030;-67
2022/01/09 11:04:06;;;;;;;11.25;1.90;;;;;;;16.43;38.69;100102.34;5092385;28;20066;-68
2022/01/09 11:06:34;;;;;;;16.67;3.00;;;;;;;16.27;39.69;100098.69;5093240;28;20055;-68
2022/01/09 11:09:02;;;;;;;10.93;2.67;;;;;;;16.33;40.60;100098.41;5109050;28;20032;-68
2022/01/09 11:11:35;;;;;;;11.47;2.10;;;;;;;17.16;39.00;100098.09;5104847;28;20093;-67
2022/01/09 11:14:05;;;;;;;14.80;3.13;;;;;;;16.17;40.47;100100.03;5113032;28;20028;-68
2022/01/09 11:16:42;;;;;;;7.03;2.17;;;;;;;17.37;39.16;100086.47;5111882;28;20387;-68
2022/01/09 11:19:10;;;;;;;8.03;2.30;;;;;;;17.07;38.80;100094.97;5113173;27;20061;-67
2022/01/09 11:21:42;;;;;;;5.37;2.07;;;;;;;17.08;38.42;100096.69;5122732;27;20499;-67
2022/01/09 11:24:10;;;;;;;16.73;1.83;;;;;;;16.40;39.92;100113.06;5133823;27;20027;-67
2022/01/09 11:26:49;;;;;;;8.83;1.43;;;;;;;15.75;41.30;100105.31;5133035;27;20027;-68
2022/01/09 11:29:17;;;;;;;13.00;2.53;;;;;;;16.71;39.67;100114.25;5113622;28;20070;-68